Time;durP1;ratioP1;P1;durP2;ratioP2;P2;SDS_P1;SDS_P2;PMS_P1;PMS_P2;Temp;Humidity;BMP_temperature;BMP_pressure;BME280_temperature;BME280_humidity;BME280_pressure;Samples;Min_cycle;Max_cycle;Signal;HPM_P1;HPM_P2
2022/10/29 00:00:52;;;;;;;15.80;5.13;;;;;;;11.94;100.00;98056.47;5045129;28;20568;-60
2022/10/29 00:03:20;;;;;;;14.82;5.22;;;;;;;11.96;100.00;98052.44;5059415;28;20040;-60
2022/10/29 00:06:01;;;;;;;16.42;4.88;;;;;;;11.92;100.00;98047.72;5061260;28;20205;-60
2022/10/29 00:08:30;;;;;;;11.20;4.18;;;;;;;11.91;100.00;98035.22;5045826;28;20048;-60
2022/10/29 00:11:11;;;;;;;8.68;4.60;;;;;;;11.93;100.00;98042.06;5046143;28;20120;-60
2022/10/29 00:13:39;;;;;;;9.88;4.18;;;;;;;11.93;100.00;98043.94;5065922;28;20093;-60
2022/10/29 00:16:07;;;;;;;15.05;4.57;;;;;;;11.97;100.00;98040.50;5065700;28;20075;-60
2022/10/29 00:18:34;;;;;;;9.93;4.80;;;;;;;11.74;100.00;98048.75;5044502;28;20573;-60
2022/10/29 00:21:02;;;;;;;12.32;4.13;;;;;;;11.50;100.00;98040.72;5045571;28;20069;-60
2022/10/29 00:23:29;;;;;;;15.35;4.95;;;;;;;11.28;100.00;98046.81;5045682;28;20405;-60
2022/10/29 00:25:57;;;;;;;11.25;4.53;;;;;;;11.26;100.00;98044.31;5046079;28;20562;-60
2022/10/29 00:28:24;;;;;;;11.07;4.95;;;;;;;11.28;100.00;98042.19;5045727;28;20468;-60
2022/10/29 00:30:51;;;;;;;13.25;4.63;;;;;;;11.36;100.00;98032.03;5045165;28;20469;-59
2022/10/29 00:33:17;;;;;;;12.63;5.00;;;;;;;11.29;100.00;98033.00;5046039;28;20055;-60
2022/10/29 00:35:55;;;;;;;12.70;4.75;;;;;;;11.34;100.00;98028.72;5045334;28;20041;-59
2022/10/29 00:38:22;;;;;;;13.43;5.20;;;;;;;11.14;100.00;98035.41;5046039;28;20523;-60
2022/10/29 00:40:49;;;;;;;13.82;5.00;;;;;;;11.07;100.00;98040.94;5045009;28;20128;-60
2022/10/29 00:43:19;;;;;;;12.95;4.30;;;;;;;11.16;100.00;98044.94;5061935;28;20075;-60
2022/10/29 00:46:14;;;;;;;12.10;5.75;;;;;;;11.28;100.00;98044.09;5059762;28;20457;-60
2022/10/29 00:48:48;;;;;;;15.48;4.95;;;;;;;11.22;100.00;98045.03;5058821;28;20135;-58
2022/10/29 00:51:16;;;;;;;11.07;4.63;;;;;;;11.17;100.00;98043.88;5062946;28;20037;-59
2022/10/29 00:53:55;;;;;;;14.77;4.15;;;;;;;11.18;100.00;98042.78;5050151;28;20044;-59
2022/10/29 00:56:24;;;;;;;14.95;4.70;;;;;;;11.11;100.00;98044.84;5049558;28;20049;-60
2022/10/29 00:58:51;;;;;;;12.60;4.47;;;;;;;11.04;100.00;98036.84;5049531;28;20110;-60
2022/10/29 01:01:18;;;;;;;11.13;4.35;;;;;;;11.03;100.00;98045.19;5048829;28;20056;-60
2022/10/29 01:03:45;;;;;;;12.05;4.15;;;;;;;11.05;100.00;98038.47;5049823;28;20049;-60
2022/10/29 01:06:13;;;;;;;17.13;4.00;;;;;;;11.18;100.00;98040.09;5048692;28;20108;-60
2022/10/29 01:08:39;;;;;;;8.77;4.05;;;;;;;11.26;100.00;98038.91;5049321;28;20053;-59
2022/10/29 01:11:28;;;;;;;16.70;4.90;;;;;;;11.34;100.00;98039.56;5048635;28;20040;-60
2022/10/29 01:14:27;;;;;;;14.98;4.15;;;;;;;11.44;100.00;98031.66;5049747;28;20501;-60
2022/10/29 01:17:19;;;;;;;6.75;3.33;;;;;;;11.47;100.00;98027.63;5048577;28;20064;-60
2022/10/29 01:20:28;;;;;;;10.05;3.45;;;;;;;11.56;100.00;98023.47;5049229;28;20132;-60
2022/10/29 01:23:33;;;;;;;9.57;3.47;;;;;;;11.56;100.00;98027.00;5050895;28;20512;-60
2022/10/29 01:26:03;;;;;;;10.43;4.07;;;;;;;11.62;100.00;98029.81;5069392;28;20137;-59
2022/10/29 01:29:23;;;;;;;13.45;3.55;;;;;;;11.71;100.00;98028.34;5060677;28;20124;-60
2022/10/29 01:32:07;;;;;;;7.00;3.65;;;;;;;11.62;100.00;98032.53;5026040;28;20073;-60
2022/10/29 01:34:44;;;;;;;10.73;3.58;;;;;;;11.62;100.00;98032.53;5048710;28;20518;-59
2022/10/29 01:37:56;;;;;;;21.35;4.43;;;;;;;11.52;100.00;98019.59;5048968;28;20464;-60
2022/10/29 01:40:30;;;;;;;11.63;3.92;;;;;;;11.30;100.00;98015.66;5047841;28;20094;-60
2022/10/29 01:43:06;;;;;;;8.35;3.83;;;;;;;11.25;100.00;98017.44;5062773;28;20076;-59
2022/10/29 01:45:42;;;;;;;13.55;4.20;;;;;;;11.15;100.00;98009.94;5064608;28;20036;-60
2022/10/29 01:48:17;;;;;;;11.32;4.43;;;;;;;11.19;100.00;98013.81;5057416;28;20492;-60
2022/10/29 01:50:51;;;;;;;11.20;4.07;;;;;;;11.16;100.00;98003.44;5065291;28;20075;-60
2022/10/29 01:53:18;;;;;;;13.32;3.95;;;;;;;11.21;100.00;98006.28;5048164;28;20116;-60
2022/10/29 01:55:44;;;;;;;12.70;3.50;;;;;;;11.15;100.00;98005.34;5064954;28;20066;-60
2022/10/29 01:58:12;;;;;;;12.63;4.63;;;;;;;11.12;100.00;97991.44;5052684;28;20562;-59
2022/10/29 02:00:57;;;;;;;9.48;3.92;;;;;;;11.12;100.00;97989.56;5062916;28;20048;-60
2022/10/29 02:03:49;;;;;;;8.98;4.47;;;;;;;11.22;100.00;97979.97;5060832;28;20037;-60
2022/10/29 02:06:25;;;;;;;11.60;3.75;;;;;;;11.25;100.00;97980.34;5068471;28;20060;-60
2022/10/29 02:09:07;;;;;;;16.55;3.97;;;;;;;11.37;100.00;97974.03;5057155;28;20081;-59
2022/10/29 02:11:58;;;;;;;10.95;3.78;;;;;;;11.42;100.00;97972.25;5050538;28;20516;-59
2022/10/29 02:14:31;;;;;;;14.47;4.03;;;;;;;11.48;100.00;97967.75;5064851;28;20045;-60
2022/10/29 02:16:59;;;;;;;11.48;5.22;;;;;;;11.53;100.00;97984.09;5048409;28;20762;-60
2022/10/29 02:19:30;;;;;;;11.85;4.13;;;;;;;11.53;100.00;97980.56;5061670;28;20110;-60
2022/10/29 02:21:56;;;;;;;12.75;3.53;;;;;;;11.50;100.00;97975.63;5048714;28;20277;-60
2022/10/29 02:24:23;;;;;;;12.35;4.07;;;;;;;11.57;100.00;97965.44;5048933;28;20128;-60
2022/10/29 02:26:50;;;;;;;15.05;3.97;;;;;;;11.67;100.00;97959.38;5047850;28;20647;-60
2022/10/29 02:29:17;;;;;;;9.25;3.70;;;;;;;11.77;99.68;97975.84;5048223;28;20073;-60
2022/10/29 02:31:44;;;;;;;9.27;4.15;;;;;;;11.78;99.80;97971.22;5047738;28;20065;-60
2022/10/29 02:34:11;;;;;;;9.13;4.75;;;;;;;11.83;99.17;97968.59;5057023;28;20552;-61
2022/10/29 02:36:38;;;;;;;11.98;3.90;;;;;;;11.87;98.99;97968.94;5068105;28;20068;-59
2022/10/29 02:39:04;;;;;;;10.52;3.70;;;;;;;11.91;98.55;97961.97;5054950;28;20048;-60
2022/10/29 02:41:31;;;;;;;13.32;4.28;;;;;;;11.94;98.17;97964.19;5049576;28;20459;-59
2022/10/29 02:43:57;;;;;;;10.93;3.95;;;;;;;11.96;97.90;97956.59;5067353;28;20476;-60
2022/10/29 02:46:24;;;;;;;11.93;3.30;;;;;;;11.94;98.18;97953.34;5067629;28;20036;-60
2022/10/29 02:48:50;;;;;;;9.88;3.83;;;;;;;11.98;97.24;97949.06;5063867;28;20526;-59
2022/10/29 02:51:17;;;;;;;8.75;3.63;;;;;;;12.00;97.13;97959.63;5066709;28;20032;-59
2022/10/29 02:53:44;;;;;;;9.60;3.63;;;;;;;11.98;97.51;97949.06;5067867;28;20041;-60
2022/10/29 02:56:10;;;;;;;8.43;3.47;;;;;;;11.95;97.92;97955.78;5048411;28;20061;-60
2022/10/29 02:58:37;;;;;;;13.50;4.10;;;;;;;11.96;97.26;97953.91;5045660;28;20427;-59
2022/10/29 03:01:05;;;;;;;9.75;3.40;;;;;;;11.93;97.43;97957.09;5045117;28;20574;-59
2022/10/29 03:03:32;;;;;;;13.90;4.25;;;;;;;11.91;97.30;97956.53;5050896;28;20593;-60
2022/10/29 03:05:59;;;;;;;9.90;3.63;;;;;;;11.90;97.40;97952.19;5062856;28;20071;-60
2022/10/29 03:08:25;;;;;;;12.57;3.70;;;;;;;11.91;97.47;97951.91;5046917;28;20076;-60
2022/10/29 03:10:53;;;;;;;10.95;4.05;;;;;;;11.97;97.08;97948.22;5046761;28;20072;-60
2022/10/29 03:13:20;;;;;;;14.30;3.72;;;;;;;12.00;96.70;97952.34;5063270;28;20052;-59
2022/10/29 03:15:46;;;;;;;9.95;3.67;;;;;;;11.92;97.38;97956.28;5066370;28;20463;-60
2022/10/29 03:18:13;;;;;;;9.13;3.78;;;;;;;11.90;97.45;97957.59;5064533;28;20126;-59
2022/10/29 03:20:39;;;;;;;16.45;5.95;;;;;;;11.88;97.60;97952.41;5046140;28;20098;-59
2022/10/29 03:23:06;;;;;;;12.48;3.47;;;;;;;11.91;97.58;97951.09;5047149;28;20072;-59
2022/10/29 03:25:32;;;;;;;10.13;3.90;;;;;;;11.94;97.40;97954.13;5045696;28;20051;-60
2022/10/29 03:27:58;;;;;;;8.90;3.40;;;;;;;11.97;97.70;97953.66;5047213;28;20532;-60
2022/10/29 03:30:25;;;;;;;11.77;3.78;;;;;;;12.01;97.19;97951.25;5045961;28;20499;-59
2022/10/29 03:32:51;;;;;;;11.32;4.40;;;;;;;12.06;96.90;97948.66;5046800;28;20049;-60
2022/10/29 03:35:18;;;;;;;10.63;4.43;;;;;;;12.10;96.72;97938.94;5064973;28;20343;-60
2022/10/29 03:37:48;;;;;;;9.10;3.47;;;;;;;12.17;96.36;97937.97;5053541;28;20049;-60
2022/10/29 03:40:15;;;;;;;16.27;3.72;;;;;;;12.23;95.77;97935.06;5046412;28;20504;-60
2022/10/29 03:42:42;;;;;;;9.20;2.95;;;;;;;12.39;94.88;97943.47;5057820;28;20080;-60
2022/10/29 03:45:09;;;;;;;14.98;4.78;;;;;;;12.39;94.66;97942.63;5046819;28;20120;-60
2022/10/29 03:47:36;;;;;;;14.75;3.65;;;;;;;12.08;96.93;97938.38;5050309;28;20079;-60
2022/10/29 03:50:03;;;;;;;10.48;3.88;;;;;;;11.78;99.90;97944.94;5061479;28;20123;-59
2022/10/29 03:52:30;;;;;;;11.73;3.80;;;;;;;11.82;99.78;97942.53;5045440;28;20412;-60
2022/10/29 03:54:56;;;;;;;8.70;3.70;;;;;;;11.85;99.44;97944.75;5044272;28;20041;-60
2022/10/29 03:57:22;;;;;;;10.95;4.15;;;;;;;11.89;99.81;97951.34;5061568;28;20041;-60
2022/10/29 03:59:49;;;;;;;11.68;4.10;;;;;;;11.86;100.00;97946.41;5061350;28;20139;-60
2022/10/29 04:02:18;;;;;;;10.63;3.33;;;;;;;11.90;99.57;97952.97;5045672;28;20094;-60
2022/10/29 04:04:45;;;;;;;12.70;4.28;;;;;;;11.93;99.07;97952.50;5056901;28;20079;-60
2022/10/29 04:07:12;;;;;;;9.05;3.38;;;;;;;11.95;98.98;97944.91;5057007;28;20296;-60
2022/10/29 04:09:38;;;;;;;13.65;3.80;;;;;;;11.92;98.64;97950.03;5045745;28;20374;-60
2022/10/29 04:12:05;;;;;;;10.43;3.55;;;;;;;11.87;98.86;97945.31;5050308;28;20040;-60
2022/10/29 04:14:32;;;;;;;8.70;3.25;;;;;;;11.86;98.86;97943.69;5066381;28;20068;-60
2022/10/29 04:16:59;;;;;;;16.25;3.50;;;;;;;11.88;98.92;97947.00;5066078;28;20093;-60
2022/10/29 04:19:25;;;;;;;10.32;4.18;;;;;;;11.85;98.99;97944.75;5060913;28;20094;-60
2022/10/29 04:21:52;;;;;;;8.35;3.67;;;;;;;11.60;100.00;97953.31;5065528;28;20383;-60
2022/10/29 04:24:38;;;;;;;9.18;4.07;;;;;;;11.39;100.00;97952.94;5055333;28;20527;-60
2022/10/29 04:27:26;;;;;;;11.20;4.15;;;;;;;11.36;100.00;97951.53;5047842;28;20059;-59
2022/10/29 04:30:12;;;;;;;6.82;3.60;;;;;;;11.42;100.00;97950.53;5049652;28;20051;-60
2022/10/29 04:32:44;;;;;;;12.35;3.95;;;;;;;11.31;100.00;97948.69;5049856;28;20573;-60
2022/10/29 04:35:10;;;;;;;7.57;4.35;;;;;;;11.22;100.00;97942.03;5049701;28;20160;-59
2022/10/29 04:37:36;;;;;;;7.22;4.00;;;;;;;11.44;100.00;97951.16;5055883;28;20264;-60
2022/10/29 04:40:03;;;;;;;12.77;3.95;;;;;;;11.48;100.00;97958.75;5069105;28;20040;-59
2022/10/29 04:42:37;;;;;;;9.88;3.67;;;;;;;11.41;100.00;97950.78;5069339;28;20068;-60
2022/10/29 04:45:05;;;;;;;12.77;4.25;;;;;;;11.03;100.00;97948.44;5060107;28;20063;-59
2022/10/29 04:47:32;;;;;;;7.35;4.00;;;;;;;11.19;100.00;97962.31;5055520;28;20056;-59
2022/10/29 04:49:58;;;;;;;11.90;4.60;;;;;;;11.26;100.00;97954.88;5059693;28;20064;-59
2022/10/29 04:52:25;;;;;;;11.60;3.85;;;;;;;11.30;100.00;97961.44;5066871;28;20051;-60
2022/10/29 04:54:51;;;;;;;13.18;3.80;;;;;;;11.28;100.00;97950.00;5069820;28;20094;-60
2022/10/29 04:57:18;;;;;;;11.35;3.72;;;;;;;11.33;100.00;97957.44;5050994;28;20068;-59
2022/10/29 04:59:44;;;;;;;12.70;5.47;;;;;;;11.27;100.00;97953.78;5049802;28;20120;-59
2022/10/29 05:02:10;;;;;;;8.43;3.40;;;;;;;10.68;100.00;97945.84;5067112;28;20040;-59
2022/10/29 05:04:37;;;;;;;8.57;3.85;;;;;;;10.89;100.00;97950.63;5068717;28;20037;-59
2022/10/29 05:07:03;;;;;;;12.88;4.20;;;;;;;11.05;100.00;97950.91;5052618;28;20075;-59
2022/10/29 05:09:30;;;;;;;7.93;3.53;;;;;;;10.92;100.00;97941.19;5061079;28;20490;-59
2022/10/29 05:11:56;;;;;;;12.00;4.10;;;;;;;10.86;100.00;97947.56;5065647;28;20064;-59
2022/10/29 05:14:23;;;;;;;12.13;3.75;;;;;;;10.97;100.00;97946.72;5069471;28;20072;-59
2022/10/29 05:16:49;;;;;;;12.63;4.13;;;;;;;11.02;100.00;97949.53;5066753;28;20120;-60
2022/10/29 05:19:16;;;;;;;10.63;4.20;;;;;;;11.03;100.00;97948.44;5048420;28;20051;-59
2022/10/29 05:21:42;;;;;;;9.02;3.50;;;;;;;11.14;99.58;97943.25;5059756;28;20067;-60
2022/10/29 05:24:09;;;;;;;13.38;3.72;;;;;;;11.18;99.33;97944.41;5050220;28;20116;-59
2022/10/29 05:26:35;;;;;;;10.63;3.72;;;;;;;11.17;99.25;97953.63;5047260;28;20569;-59
2022/10/29 05:29:02;;;;;;;7.18;3.47;;;;;;;11.16;99.65;97946.53;5047286;28;20456;-60
2022/10/29 05:31:28;;;;;;;9.18;3.78;;;;;;;11.14;100.00;97948.66;5047806;28;20037;-59
2022/10/29 05:33:55;;;;;;;8.00;3.70;;;;;;;11.12;99.87;97948.06;5060587;28;20137;-60
2022/10/29 05:36:21;;;;;;;11.32;4.15;;;;;;;11.08;100.00;97957.75;5048427;28;20447;-60
2022/10/29 05:38:48;;;;;;;9.63;3.90;;;;;;;11.08;99.29;97952.31;5063375;28;20044;-60
2022/10/29 05:41:14;;;;;;;11.13;4.72;;;;;;;10.92;99.98;97943.91;5060757;28;20045;-60
2022/10/29 05:43:41;;;;;;;11.40;4.05;;;;;;;10.94;100.00;97939.06;5062063;28;20052;-60
2022/10/29 05:46:07;;;;;;;8.68;3.67;;;;;;;10.92;99.79;97946.63;5056232;28;20588;-60
2022/10/29 05:48:34;;;;;;;11.30;4.43;;;;;;;10.78;100.00;97943.34;5061729;28;20076;-60
2022/10/29 05:51:01;;;;;;;10.73;4.03;;;;;;;10.88;99.46;97943.53;5059091;28;20510;-60
2022/10/29 05:53:27;;;;;;;17.30;4.40;;;;;;;10.85;99.81;97943.22;5058583;28;20123;-60
2022/10/29 05:55:53;;;;;;;13.57;3.53;;;;;;;10.89;99.61;97945.22;5065318;28;20206;-59
2022/10/29 05:58:20;;;;;;;11.63;3.40;;;;;;;10.93;99.44;97950.97;5061099;28;20080;-60
2022/10/29 06:00:46;;;;;;;12.77;3.58;;;;;;;10.94;99.16;97955.31;5060782;28;20083;-59
2022/10/29 06:03:21;;;;;;;15.68;4.13;;;;;;;10.82;100.00;97954.53;5063753;28;20536;-60
2022/10/29 06:05:49;;;;;;;10.25;4.75;;;;;;;10.70;100.00;97952.69;5062350;28;20079;-60
2022/10/29 06:08:16;;;;;;;11.27;4.13;;;;;;;10.74;100.00;97948.44;5055800;28;20071;-59
2022/10/29 06:10:43;;;;;;;10.85;3.72;;;;;;;10.69;100.00;97956.44;5055691;28;20475;-60
2022/10/29 06:13:11;;;;;;;10.95;4.40;;;;;;;10.66;100.00;97959.63;5064976;28;20047;-60
2022/10/29 06:15:37;;;;;;;9.98;3.55;;;;;;;10.47;100.00;97962.47;5060699;28;20140;-60
2022/10/29 06:18:04;;;;;;;8.35;3.85;;;;;;;10.44;100.00;97948.56;5064980;28;20075;-59
2022/10/29 06:20:31;;;;;;;10.52;3.88;;;;;;;10.50;100.00;97961.16;5022893;28;1091883;-60
2022/10/29 06:22:58;;;;;;;13.13;4.15;;;;;;;10.52;100.00;97961.75;5057885;28;20072;-59
2022/10/29 06:25:25;;;;;;;16.60;4.90;;;;;;;10.37;100.00;97957.63;5065687;28;20036;-59
2022/10/29 06:27:59;;;;;;;9.27;4.60;;;;;;;10.30;100.00;97956.09;5060094;28;20068;-59
2022/10/29 06:30:26;;;;;;;12.43;4.45;;;;;;;10.32;100.00;97962.91;5053751;28;20073;-59
2022/10/29 06:32:53;;;;;;;9.27;4.05;;;;;;;10.39;100.00;97957.38;5048948;28;20106;-59
2022/10/29 06:35:20;;;;;;;10.23;4.97;;;;;;;10.54;100.00;97952.34;5067860;28;20101;-59
2022/10/29 06:37:47;;;;;;;9.90;4.10;;;;;;;10.58;100.00;97954.56;5066024;28;20415;-60
2022/10/29 06:40:14;;;;;;;16.85;3.63;;;;;;;10.62;100.00;97958.47;5055476;28;20056;-59
2022/10/29 06:42:40;;;;;;;18.15;4.00;;;;;;;10.62;100.00;97953.84;5058852;28;20076;-60
2022/10/29 06:45:07;;;;;;;10.82;4.43;;;;;;;10.65;99.91;97958.78;5067783;28;20123;-59
2022/10/29 06:47:41;;;;;;;10.80;4.95;;;;;;;10.71;100.00;97953.47;5051177;28;20569;-59
2022/10/29 06:50:09;;;;;;;8.75;4.10;;;;;;;10.78;99.58;97954.19;5065855;28;20152;-60
2022/10/29 06:52:36;;;;;;;10.45;4.50;;;;;;;10.87;99.11;97960.06;5056627;28;20460;-59
2022/10/29 06:55:03;;;;;;;13.13;4.50;;;;;;;10.90;99.00;97954.97;5047279;28;20420;-60
2022/10/29 06:57:30;;;;;;;17.75;4.40;;;;;;;10.95;98.90;97954.28;5064941;28;20343;-59
2022/10/29 06:59:57;;;;;;;11.55;4.25;;;;;;;10.97;98.78;97951.31;5049789;28;20464;-60
2022/10/29 07:02:26;;;;;;;17.95;5.30;;;;;;;10.98;98.94;97953.78;5066919;28;20056;-60
2022/10/29 07:04:52;;;;;;;11.40;4.80;;;;;;;11.06;98.28;97950.69;5057113;28;20072;-59
2022/10/29 07:07:19;;;;;;;9.18;4.95;;;;;;;11.18;97.58;97949.84;5046751;28;20124;-60
2022/10/29 07:09:45;;;;;;;11.85;4.60;;;;;;;11.40;95.92;97954.56;5046447;28;20080;-59
2022/10/29 07:12:12;;;;;;;11.23;4.90;;;;;;;11.51;95.80;97953.69;5054183;28;20080;-60
2022/10/29 07:14:38;;;;;;;12.02;4.68;;;;;;;11.62;95.61;97956.59;5067013;28;20056;-60
2022/10/29 07:17:05;;;;;;;21.55;4.82;;;;;;;11.76;95.09;97963.31;5051738;28;20064;-60
2022/10/29 07:19:31;;;;;;;12.32;4.68;;;;;;;11.90;93.99;97961.13;5058792;28;20040;-59
2022/10/29 07:21:58;;;;;;;12.98;3.83;;;;;;;12.09;92.86;97952.78;5053718;28;20197;-60
2022/10/29 07:24:24;;;;;;;12.77;4.15;;;;;;;12.20;92.21;97957.28;5055325;28;20074;-60
2022/10/29 07:26:51;;;;;;;11.85;4.13;;;;;;;12.38;91.68;97954.56;5058848;28;20047;-60
2022/10/29 07:29:17;;;;;;;10.68;4.68;;;;;;;12.58;90.59;97963.00;5045204;28;20080;-60
2022/10/29 07:31:44;;;;;;;10.60;4.18;;;;;;;12.83;89.54;97958.97;5046281;28;20049;-60
2022/10/29 07:34:10;;;;;;;11.65;4.13;;;;;;;13.00;89.08;97966.22;5055477;28;20036;-60
2022/10/29 07:36:37;;;;;;;10.05;3.58;;;;;;;13.17;87.32;97963.47;5066759;28;20526;-60
2022/10/29 07:39:03;;;;;;;10.73;3.67;;;;;;;13.34;86.41;97965.28;5048431;28;20079;-60
2022/10/29 07:41:31;;;;;;;10.18;3.78;;;;;;;13.56;85.25;97967.16;5047735;28;20083;-59
2022/10/29 07:43:57;;;;;;;10.52;3.67;;;;;;;13.70;84.90;97968.38;5057382;28;20045;-60
2022/10/29 07:46:24;;;;;;;15.07;3.95;;;;;;;13.85;84.24;97970.41;5046106;28;20132;-59
2022/10/29 07:48:50;;;;;;;15.63;3.70;;;;;;;13.99;83.81;97972.69;5056249;28;20072;-60
2022/10/29 07:51:16;;;;;;;9.07;3.80;;;;;;;14.13;83.91;97975.81;5045596;28;20329;-59
2022/10/29 07:53:43;;;;;;;10.52;3.60;;;;;;;14.21;82.93;97969.88;5046595;28;20073;-59
2022/10/29 07:56:09;;;;;;;7.30;3.42;;;;;;;14.31;82.64;97974.59;5046173;28;20037;-60
2022/10/29 07:58:36;;;;;;;8.00;3.22;;;;;;;14.43;82.87;97972.50;5046116;28;20132;-60
2022/10/29 08:01:02;;;;;;;7.85;2.92;;;;;;;14.55;83.11;97963.28;5045445;28;20622;-60
2022/10/29 08:03:29;;;;;;;6.10;3.50;;;;;;;14.65;82.63;97977.00;5045813;28;20102;-60
2022/10/29 08:05:56;;;;;;;11.43;3.42;;;;;;;14.77;82.29;97975.97;5045574;28;20041;-61
2022/10/29 08:08:24;;;;;;;11.48;3.83;;;;;;;14.91;81.25;97971.69;5045618;28;20128;-61
2022/10/29 08:10:50;;;;;;;9.60;3.90;;;;;;;14.99;81.33;97969.53;5051219;28;20421;-61
2022/10/29 08:13:17;;;;;;;11.15;4.07;;;;;;;15.07;80.69;97969.03;5066368;28;20083;-61
2022/10/29 08:15:45;;;;;;;11.52;3.97;;;;;;;15.09;79.74;97977.78;5051605;28;20492;-61
2022/10/29 08:18:16;;;;;;;7.85;3.10;;;;;;;15.17;79.76;97968.25;5047069;28;20069;-61
2022/10/29 08:20:43;;;;;;;8.95;3.13;;;;;;;15.22;79.63;97973.72;5055177;28;20080;-61
2022/10/29 08:23:11;;;;;;;9.02;3.08;;;;;;;15.28;78.93;97977.28;5046300;28;20601;-61
2022/10/29 08:25:40;;;;;;;9.70;3.03;;;;;;;15.33;78.54;97978.13;5045439;28;20098;-61
2022/10/29 08:28:12;;;;;;;9.13;3.20;;;;;;;15.41;79.46;97974.03;5045942;28;20072;-61
2022/10/29 08:30:40;;;;;;;10.13;3.88;;;;;;;15.48;79.00;97974.63;5045022;28;20195;-61
2022/10/29 08:33:06;;;;;;;10.68;2.90;;;;;;;15.55;78.69;97974.34;5045551;28;20147;-61
2022/10/29 08:35:33;;;;;;;6.88;2.78;;;;;;;15.58;78.57;97971.09;5045675;28;20631;-61
2022/10/29 08:37:59;;;;;;;9.65;3.30;;;;;;;15.62;77.84;97973.28;5045316;28;20122;-61
2022/10/29 08:40:27;;;;;;;10.43;3.75;;;;;;;15.71;75.50;97971.66;5045341;28;20049;-61
2022/10/29 08:43:29;;;;;;;10.05;2.97;;;;;;;15.78;75.33;97964.03;5059641;28;20589;-61
2022/10/29 08:45:56;;;;;;;7.03;2.58;;;;;;;15.84;74.93;97967.56;5058718;28;20493;-61
2022/10/29 08:48:25;;;;;;;10.88;3.22;;;;;;;15.85;75.74;97971.97;5054661;28;20037;-60
2022/10/29 08:51:00;;;;;;;10.45;3.00;;;;;;;15.92;76.20;97980.69;5058577;28;20531;-60
2022/10/29 08:53:35;;;;;;;11.40;3.75;;;;;;;16.00;76.73;97973.91;5061592;28;20072;-61
2022/10/29 08:56:06;;;;;;;9.98;2.60;;;;;;;16.12;72.71;97982.66;5059990;28;20045;-61
2022/10/29 08:58:42;;;;;;;10.23;2.97;;;;;;;16.23;76.54;97977.16;5051808;28;20526;-61
2022/10/29 09:01:10;;;;;;;9.57;2.90;;;;;;;16.30;75.10;97975.00;5059320;28;20539;-61
2022/10/29 09:03:38;;;;;;;7.45;2.78;;;;;;;16.40;74.18;97976.88;5058922;28;20419;-61
2022/10/29 09:06:15;;;;;;;8.27;3.10;;;;;;;16.53;73.56;97972.75;5049349;28;20115;-59
2022/10/29 09:09:15;;;;;;;6.95;3.25;;;;;;;16.70;72.69;97971.63;5044299;28;20136;-60
2022/10/29 09:12:28;;;;;;;9.95;2.88;;;;;;;16.85;71.55;97973.50;5045328;28;20037;-60
2022/10/29 09:15:14;;;;;;;7.55;2.75;;;;;;;17.01;70.71;97977.00;5054556;28;20106;-60
2022/10/29 09:17:43;;;;;;;7.45;3.28;;;;;;;17.15;70.00;97969.84;5058124;28;20611;-59
2022/10/29 09:20:29;;;;;;;8.10;2.88;;;;;;;17.34;68.98;97968.41;5055428;28;20033;-60
2022/10/29 09:22:58;;;;;;;8.98;3.40;;;;;;;17.53;68.83;97971.28;5057352;28;20098;-61
2022/10/29 09:25:52;;;;;;;8.05;3.05;;;;;;;17.74;68.09;97963.78;5051372;28;20125;-60
2022/10/29 09:28:35;;;;;;;12.25;3.00;;;;;;;18.00;66.79;97957.28;5058836;28;20065;-60
2022/10/29 09:31:08;;;;;;;8.65;3.22;;;;;;;18.24;66.00;97959.31;5056119;28;20259;-60
2022/10/29 09:33:36;;;;;;;10.65;2.75;;;;;;;18.41;63.90;97950.66;5061864;28;20040;-60
2022/10/29 09:36:13;;;;;;;7.50;2.60;;;;;;;18.63;64.61;97952.06;5063059;28;20041;-60
2022/10/29 09:39:02;;;;;;;8.70;2.75;;;;;;;18.79;63.72;97950.78;5066828;28;20109;-61
2022/10/29 09:41:33;;;;;;;7.80;2.97;;;;;;;18.97;63.00;97948.38;5064650;28;20245;-60
2022/10/29 09:44:05;;;;;;;8.75;2.58;;;;;;;19.16;61.40;97944.91;5063314;28;20079;-61
2022/10/29 09:46:57;;;;;;;6.50;2.90;;;;;;;19.33;59.37;97942.47;5058911;28;20407;-60
2022/10/29 09:49:51;;;;;;;11.32;3.10;;;;;;;19.43;58.54;97943.44;5065583;28;20576;-60
2022/10/29 09:52:21;;;;;;;9.45;2.88;;;;;;;19.48;58.63;97943.34;5049301;28;20602;-60
2022/10/29 09:54:50;;;;;;;14.27;4.03;;;;;;;19.53;58.52;97948.78;5046792;28;20041;-60
2022/10/29 09:57:21;;;;;;;12.85;2.63;;;;;;;19.46;57.58;97948.34;5047590;28;20045;-60
2022/10/29 09:59:55;;;;;;;10.02;3.22;;;;;;;19.53;57.53;97947.97;5059290;28;20546;-60
2022/10/29 10:02:37;;;;;;;8.90;3.30;;;;;;;19.63;57.26;97956.88;5063384;28;20102;-60
2022/10/29 10:05:14;;;;;;;9.18;3.42;;;;;;;19.67;56.92;97953.50;5051493;28;20050;-60
2022/10/29 10:07:41;;;;;;;9.15;2.72;;;;;;;19.83;57.16;97954.91;5065447;28;20556;-61
2022/10/29 10:10:22;;;;;;;10.90;3.03;;;;;;;19.95;57.20;97951.72;5060874;28;20051;-61
2022/10/29 10:12:49;;;;;;;12.47;3.60;;;;;;;19.96;56.61;97944.28;5056087;28;20094;-61
2022/10/29 10:15:15;;;;;;;9.55;3.13;;;;;;;19.96;56.99;97945.09;5050462;28;20392;-61
2022/10/29 10:18:19;;;;;;;10.13;2.63;;;;;;;20.01;56.67;97942.28;5053910;28;20064;-60
2022/10/29 10:21:04;;;;;;;9.60;3.30;;;;;;;20.01;56.20;97938.72;5055398;28;20143;-61
2022/10/29 10:23:40;;;;;;;10.57;2.75;;;;;;;20.12;58.66;97931.16;5052156;28;20748;-60
2022/10/29 10:26:31;;;;;;;8.98;2.80;;;;;;;20.21;56.44;97934.81;5057352;28;20106;-62
2022/10/29 10:29:12;;;;;;;12.25;2.88;;;;;;;20.25;56.24;97929.53;5058249;28;20048;-59
2022/10/29 10:31:40;;;;;;;9.43;2.88;;;;;;;20.38;56.11;97933.44;5050793;28;20593;-61
2022/10/29 10:34:19;;;;;;;7.15;2.53;;;;;;;20.40;55.63;97942.19;5060040;28;20101;-59
2022/10/29 10:36:51;;;;;;;7.25;3.17;;;;;;;20.43;56.54;97936.09;5065559;28;20136;-59
2022/10/29 10:39:35;;;;;;;8.00;2.67;;;;;;;20.59;54.23;97928.34;5055909;28;20570;-63
2022/10/29 10:42:05;;;;;;;10.23;3.10;;;;;;;20.97;52.27;97932.06;5064906;28;20492;-59
2022/10/29 10:44:32;;;;;;;8.45;2.70;;;;;;;21.18;52.06;97930.50;5058659;28;20071;-61
2022/10/29 10:47:05;;;;;;;12.75;2.95;;;;;;;21.30;52.09;97931.91;5064156;28;20151;-61
2022/10/29 10:49:37;;;;;;;9.07;2.65;;;;;;;21.40;52.79;97923.41;5060661;28;20071;-62
2022/10/29 10:52:12;;;;;;;14.40;3.38;;;;;;;21.53;50.75;97915.41;5064381;28;20135;-62
2022/10/29 10:54:45;;;;;;;10.55;2.85;;;;;;;21.62;51.89;97909.97;5057888;28;20048;-61
2022/10/29 10:57:11;;;;;;;9.30;2.85;;;;;;;21.54;51.15;97909.59;5052942;28;20056;-65
2022/10/29 10:59:52;;;;;;;7.57;2.42;;;;;;;21.69;52.04;97908.44;5055073;28;20163;-61
2022/10/29 11:02:46;;;;;;;7.72;3.47;;;;;;;21.71;51.69;97899.84;5063165;28;20121;-62
2022/10/29 11:05:16;;;;;;;9.05;2.75;;;;;;;21.69;53.92;97894.66;5062626;28;20055;-62
2022/10/29 11:07:51;;;;;;;8.27;2.75;;;;;;;21.94;52.49;97905.38;5061265;28;20440;-63
2022/10/29 11:10:23;;;;;;;14.63;2.80;;;;;;;21.99;52.44;97898.91;5053488;28;20045;-63
2022/10/29 11:12:54;;;;;;;12.68;3.17;;;;;;;21.89;52.78;97903.56;5061807;28;20469;-62
2022/10/29 11:15:44;;;;;;;6.93;2.58;;;;;;;21.83;53.02;97902.84;5064163;28;20059;-62
2022/10/29 11:18:32;;;;;;;8.98;2.60;;;;;;;21.80;53.22;97894.41;5052347;28;20041;-61
2022/10/29 11:21:02;;;;;;;7.60;2.10;;;;;;;21.86;53.85;97893.19;5057703;28;20907;-61
2022/10/29 11:23:45;;;;;;;14.70;3.25;;;;;;;21.87;54.31;97885.69;5060254;28;20071;-61
2022/10/29 11:26:39;;;;;;;9.50;2.50;;;;;;;21.88;54.64;97882.63;5058218;28;20123;-61
2022/10/29 11:29:28;;;;;;;6.60;2.30;;;;;;;21.90;55.01;97888.66;5057528;28;20076;-61
2022/10/29 11:32:12;;;;;;;11.50;2.97;;;;;;;21.99;55.45;97879.59;5052787;28;20119;-62
2022/10/29 11:34:59;;;;;;;8.30;3.05;;;;;;;22.11;56.39;97882.59;5063536;28;20041;-62
2022/10/29 11:38:08;;;;;;;9.48;2.55;;;;;;;22.47;51.92;97880.81;5064354;28;20048;-62
2022/10/29 11:41:06;;;;;;;13.65;3.00;;;;;;;22.74;51.74;97873.50;5054981;28;20532;-62
2022/10/29 11:43:33;;;;;;;10.60;3.20;;;;;;;22.71;51.71;97865.84;5063183;28;20504;-62
2022/10/29 11:46:26;;;;;;;11.82;2.90;;;;;;;22.84;51.16;97864.09;5061537;28;20079;-62